Bookmark and Share
Track history (hours):
 

Sea Resolve

Last reported at 2012-Sep-12 11:29 UTC. Time now 2014-Apr-23 19:19 UTC.
Position S 29°20' E 031°40'.
Warning: this ship's position is years out of date!

Length 135 m; draft 8 m.

Type: Cargo ship. MMSI: 376391000.

NotesDate/timePositionNaut miles runAvg speedWind from/ knotsBaromVisibWave heightAir tempDewpointWater temp
2012-Sep-12 11:29S 29°20' E 031°40'7 7.6
2012-Sep-12 10:35S 29°25' E 031°35'8 8.2
2012-Sep-12 09:33S 29°31' E 031°28'9 8.5
2012-Sep-12 08:34S 29°37' E 031°21'8 8.1
2012-Sep-12 07:34S 29°42' E 031°14'8 8.4
2012-Sep-12 06:34S 29°48' E 031°07'5 5.4
2012-Sep-12 05:33S 29°52' E 031°03'0 0.0
2012-Sep-12 04:36S 29°52' E 031°03'0 0.0
2012-Sep-12 03:33S 29°52' E 031°03'0 0.0
2012-Sep-12 02:33S 29°52' E 031°03'0 0.0
2012-Sep-12 01:33S 29°52' E 031°03'0 0.0
2012-Sep-12 00:33S 29°52' E 031°03'0 0.0
2012-Sep-11 23:33S 29°52' E 031°03'0 0.0
2012-Sep-11 22:33S 29°52' E 031°03'0 0.0
2012-Sep-11 21:33S 29°52' E 031°03'0 0.0
2012-Sep-11 20:34S 29°52' E 031°03'0 0.3
2012-Sep-11 19:34S 29°52' E 031°03'4 3.7
2012-Sep-11 18:34S 29°51' E 031°07'9 8.7
2012-Sep-11 17:34S 29°59' E 031°04'10 9.8
2012-Sep-11 16:33S 30°08' E 030°59'  
2012-Sep-08 04:32S 34°22' E 018°14'  

Dump ship's entire track history

sailing weather and tide predictions

Sea Resolve — J8B3751 — position and weather